sensor_id;sensor_type;location;lat;lon;timestamp;pressure;altitude;pressure_sealevel;temperature;humidity
40245;BME280;25963;42.694;23.600;2023-05-19T00:01:56;95378.22;;;11.48;100.00
40245;BME280;25963;42.694;23.600;2023-05-19T00:04:24;95379.03;;;11.48;100.00
40245;BME280;25963;42.694;23.600;2023-05-19T00:06:50;95347.56;;;11.22;100.00
40245;BME280;25963;42.694;23.600;2023-05-19T00:09:18;95353.78;;;11.09;100.00
40245;BME280;25963;42.694;23.600;2023-05-19T00:11:43;95370.38;;;11.16;100.00
40245;BME280;25963;42.694;23.600;2023-05-19T00:14:09;95367.50;;;11.17;100.00
40245;BME280;25963;42.694;23.600;2023-05-19T00:16:36;95377.91;;;11.37;100.00
40245;BME280;25963;42.694;23.600;2023-05-19T00:19:03;95365.69;;;11.18;100.00
40245;BME280;25963;42.694;23.600;2023-05-19T00:21:29;95362.16;;;11.24;100.00
40245;BME280;25963;42.694;23.600;2023-05-19T00:23:56;95380.31;;;11.39;100.00
40245;BME280;25963;42.694;23.600;2023-05-19T00:26:21;95360.50;;;11.30;100.00
40245;BME280;25963;42.694;23.600;2023-05-19T00:28:48;95367.63;;;11.29;100.00
40245;BME280;25963;42.694;23.600;2023-05-19T00:31:13;95370.09;;;11.24;100.00
40245;BME280;25963;42.694;23.600;2023-05-19T00:33:39;95370.25;;;11.29;100.00
40245;BME280;25963;42.694;23.600;2023-05-19T00:36:05;95366.59;;;11.30;100.00
40245;BME280;25963;42.694;23.600;2023-05-19T00:38:32;95380.69;;;11.42;100.00
40245;BME280;25963;42.694;23.600;2023-05-19T00:40:58;95376.34;;;11.30;100.00
40245;BME280;25963;42.694;23.600;2023-05-19T00:43:24;95349.16;;;11.04;100.00
40245;BME280;25963;42.694;23.600;2023-05-19T00:45:50;95345.25;;;11.07;100.00
40245;BME280;25963;42.694;23.600;2023-05-19T00:48:15;95374.81;;;11.22;100.00
40245;BME280;25963;42.694;23.600;2023-05-19T00:50:41;95352.53;;;10.86;100.00
40245;BME280;25963;42.694;23.600;2023-05-19T00:53:07;95339.28;;;10.93;100.00
40245;BME280;25963;42.694;23.600;2023-05-19T00:55:36;95358.31;;;11.02;100.00
40245;BME280;25963;42.694;23.600;2023-05-19T00:58:03;95355.72;;;10.95;100.00
40245;BME280;25963;42.694;23.600;2023-05-19T01:00:29;95351.44;;;10.94;100.00
40245;BME280;25963;42.694;23.600;2023-05-19T01:02:54;95356.91;;;10.99;100.00
40245;BME280;25963;42.694;23.600;2023-05-19T01:05:21;95354.69;;;10.96;100.00
40245;BME280;25963;42.694;23.600;2023-05-19T01:07:47;95356.34;;;10.90;100.00
40245;BME280;25963;42.694;23.600;2023-05-19T01:10:16;95364.88;;;10.92;100.00
40245;BME280;25963;42.694;23.600;2023-05-19T01:12:42;95363.59;;;11.02;100.00
40245;BME280;25963;42.694;23.600;2023-05-19T01:15:08;95355.66;;;11.02;100.00
40245;BME280;25963;42.694;23.600;2023-05-19T01:18:07;95373.88;;;11.10;100.00
40245;BME280;25963;42.694;23.600;2023-05-19T01:20:40;95368.94;;;10.88;100.00
40245;BME280;25963;42.694;23.600;2023-05-19T01:26:03;95385.56;;;10.95;100.00
40245;BME280;25963;42.694;23.600;2023-05-19T01:28:54;95376.28;;;10.86;100.00
40245;BME280;25963;42.694;23.600;2023-05-19T01:31:26;95366.66;;;10.67;100.00
40245;BME280;25963;42.694;23.600;2023-05-19T01:33:53;95379.78;;;10.80;100.00
40245;BME280;25963;42.694;23.600;2023-05-19T01:36:21;95345.41;;;10.55;100.00
40245;BME280;25963;42.694;23.600;2023-05-19T01:38:53;95373.97;;;10.65;100.00
40245;BME280;25963;42.694;23.600;2023-05-19T01:41:21;95363.69;;;10.57;100.00
40245;BME280;25963;42.694;23.600;2023-05-19T01:43:47;95377.69;;;10.57;100.00
40245;BME280;25963;42.694;23.600;2023-05-19T01:46:14;95389.16;;;10.69;100.00
40245;BME280;25963;42.694;23.600;2023-05-19T01:48:41;95386.75;;;10.68;100.00
40245;BME280;25963;42.694;23.600;2023-05-19T01:51:07;95367.50;;;10.61;100.00
40245;BME280;25963;42.694;23.600;2023-05-19T01:53:33;95356.16;;;10.60;100.00
40245;BME280;25963;42.694;23.600;2023-05-19T01:55:58;95367.06;;;10.64;100.00
40245;BME280;25963;42.694;23.600;2023-05-19T02:09:14;95386.00;;;10.92;100.00
40245;BME280;25963;42.694;23.600;2023-05-19T02:11:55;95348.84;;;10.56;100.00
40245;BME280;25963;42.694;23.600;2023-05-19T02:14:29;95356.00;;;10.48;100.00
40245;BME280;25963;42.694;23.600;2023-05-19T02:16:58;95363.97;;;10.42;100.00
40245;BME280;25963;42.694;23.600;2023-05-19T02:19:25;95371.56;;;10.63;100.00
40245;BME280;25963;42.694;23.600;2023-05-19T02:21:51;95367.94;;;10.58;100.00
40245;BME280;25963;42.694;23.600;2023-05-19T02:24:18;95375.22;;;10.62;100.00
40245;BME280;25963;42.694;23.600;2023-05-19T02:26:44;95384.78;;;10.57;100.00
40245;BME280;25963;42.694;23.600;2023-05-19T02:29:10;95383.75;;;10.58;100.00
40245;BME280;25963;42.694;23.600;2023-05-19T02:31:36;95387.06;;;10.46;100.00
40245;BME280;25963;42.694;23.600;2023-05-19T02:34:01;95378.03;;;10.29;100.00
40245;BME280;25963;42.694;23.600;2023-05-19T02:36:27;95384.91;;;10.17;100.00
40245;BME280;25963;42.694;23.600;2023-05-19T02:38:52;95370.56;;;10.13;100.00
40245;BME280;25963;42.694;23.600;2023-05-19T02:41:18;95369.16;;;10.03;100.00
40245;BME280;25963;42.694;23.600;2023-05-19T02:43:43;95385.19;;;10.09;100.00
40245;BME280;25963;42.694;23.600;2023-05-19T02:46:09;95383.16;;;10.04;100.00
40245;BME280;25963;42.694;23.600;2023-05-19T02:48:34;95407.66;;;10.18;100.00
40245;BME280;25963;42.694;23.600;2023-05-19T02:51:00;95387.19;;;10.06;100.00
40245;BME280;25963;42.694;23.600;2023-05-19T02:53:25;95373.66;;;9.96;100.00
40245;BME280;25963;42.694;23.600;2023-05-19T02:55:51;95392.09;;;10.03;100.00
40245;BME280;25963;42.694;23.600;2023-05-19T02:58:16;95391.69;;;9.99;100.00
40245;BME280;25963;42.694;23.600;2023-05-19T03:00:43;95414.78;;;10.04;100.00
40245;BME280;25963;42.694;23.600;2023-05-19T03:03:09;95385.03;;;9.90;100.00
40245;BME280;25963;42.694;23.600;2023-05-19T03:05:34;95402.25;;;9.99;100.00
40245;BME280;25963;42.694;23.600;2023-05-19T03:08:00;95393.91;;;9.96;100.00
40245;BME280;25963;42.694;23.600;2023-05-19T03:10:26;95405.03;;;10.04;100.00
40245;BME280;25963;42.694;23.600;2023-05-19T03:12:51;95391.50;;;9.94;100.00
40245;BME280;25963;42.694;23.600;2023-05-19T03:15:17;95393.31;;;10.00;100.00
40245;BME280;25963;42.694;23.600;2023-05-19T03:17:43;95404.22;;;10.11;100.00
40245;BME280;25963;42.694;23.600;2023-05-19T03:20:09;95404.19;;;10.24;100.00
40245;BME280;25963;42.694;23.600;2023-05-19T03:22:35;95425.66;;;10.34;100.00
40245;BME280;25963;42.694;23.600;2023-05-19T03:25:00;95396.06;;;10.32;100.00
40245;BME280;25963;42.694;23.600;2023-05-19T03:27:26;95386.84;;;9.96;100.00
40245;BME280;25963;42.694;23.600;2023-05-19T03:29:51;95397.88;;;10.25;100.00
40245;BME280;25963;42.694;23.600;2023-05-19T03:32:18;95427.22;;;10.48;100.00
40245;BME280;25963;42.694;23.600;2023-05-19T03:34:43;95410.38;;;10.49;100.00
40245;BME280;25963;42.694;23.600;2023-05-19T03:37:09;95409.94;;;10.52;100.00
40245;BME280;25963;42.694;23.600;2023-05-19T03:39:35;95398.75;;;10.64;100.00
40245;BME280;25963;42.694;23.600;2023-05-19T03:42:00;95406.13;;;10.87;100.00
40245;BME280;25963;42.694;23.600;2023-05-19T03:44:26;95426.84;;;11.15;100.00
40245;BME280;25963;42.694;23.600;2023-05-19T03:46:51;95408.28;;;11.22;100.00
40245;BME280;25963;42.694;23.600;2023-05-19T03:49:17;95405.94;;;11.38;100.00
40245;BME280;25963;42.694;23.600;2023-05-19T03:51:42;95401.75;;;11.31;100.00
40245;BME280;25963;42.694;23.600;2023-05-19T03:54:08;95408.56;;;11.38;100.00
40245;BME280;25963;42.694;23.600;2023-05-19T03:56:37;95425.13;;;11.52;100.00
40245;BME280;25963;42.694;23.600;2023-05-19T03:59:03;95434.06;;;11.76;100.00
40245;BME280;25963;42.694;23.600;2023-05-19T04:01:32;95442.56;;;11.85;100.00
40245;BME280;25963;42.694;23.600;2023-05-19T04:03:57;95408.88;;;11.74;100.00
40245;BME280;25963;42.694;23.600;2023-05-19T04:06:23;95452.41;;;11.96;100.00
40245;BME280;25963;42.694;23.600;2023-05-19T04:08:49;95447.50;;;12.00;100.00
40245;BME280;25963;42.694;23.600;2023-05-19T04:11:14;95445.22;;;12.03;100.00
40245;BME280;25963;42.694;23.600;2023-05-19T04:13:40;95426.03;;;11.64;100.00
40245;BME280;25963;42.694;23.600;2023-05-19T04:16:06;95432.00;;;11.78;100.00
40245;BME280;25963;42.694;23.600;2023-05-19T04:18:31;95423.88;;;11.80;100.00
40245;BME280;25963;42.694;23.600;2023-05-19T04:20:57;95436.41;;;11.84;100.00
40245;BME280;25963;42.694;23.600;2023-05-19T04:23:22;95444.53;;;11.90;100.00
40245;BME280;25963;42.694;23.600;2023-05-19T04:25:48;95449.03;;;11.64;100.00
40245;BME280;25963;42.694;23.600;2023-05-19T04:28:14;95442.69;;;11.90;100.00
40245;BME280;25963;42.694;23.600;2023-05-19T04:30:40;95452.47;;;12.08;100.00
40245;BME280;25963;42.694;23.600;2023-05-19T04:33:12;95458.38;;;12.10;100.00
40245;BME280;25963;42.694;23.600;2023-05-19T04:35:37;95446.47;;;12.01;100.00
40245;BME280;25963;42.694;23.600;2023-05-19T04:38:04;95462.97;;;11.96;100.00
40245;BME280;25963;42.694;23.600;2023-05-19T04:40:29;95443.66;;;11.96;100.00
40245;BME280;25963;42.694;23.600;2023-05-19T04:42:55;95443.38;;;11.85;100.00
40245;BME280;25963;42.694;23.600;2023-05-19T04:45:21;95452.72;;;12.06;100.00
40245;BME280;25963;42.694;23.600;2023-05-19T04:47:50;95460.13;;;12.53;100.00
40245;BME280;25963;42.694;23.600;2023-05-19T04:50:17;95447.91;;;12.70;100.00
40245;BME280;25963;42.694;23.600;2023-05-19T04:52:42;95447.94;;;13.42;100.00
40245;BME280;25963;42.694;23.600;2023-05-19T04:55:10;95458.09;;;13.69;100.00
40245;BME280;25963;42.694;23.600;2023-05-19T04:57:35;95454.88;;;13.79;100.00
40245;BME280;25963;42.694;23.600;2023-05-19T05:00:02;95458.09;;;14.51;100.00
40245;BME280;25963;42.694;23.600;2023-05-19T05:02:32;95446.72;;;15.25;100.00
40245;BME280;25963;42.694;23.600;2023-05-19T05:04:58;95453.56;;;15.83;100.00
40245;BME280;25963;42.694;23.600;2023-05-19T05:07:23;95447.88;;;16.52;100.00
40245;BME280;25963;42.694;23.600;2023-05-19T05:09:49;95462.34;;;17.60;100.00
40245;BME280;25963;42.694;23.600;2023-05-19T05:12:15;95456.25;;;17.96;100.00
40245;BME280;25963;42.694;23.600;2023-05-19T05:14:41;95460.09;;;18.11;100.00
40245;BME280;25963;42.694;23.600;2023-05-19T05:17:07;95461.56;;;17.64;100.00
40245;BME280;25963;42.694;23.600;2023-05-19T05:19:34;95461.97;;;17.19;100.00
40245;BME280;25963;42.694;23.600;2023-05-19T05:22:00;95464.13;;;17.22;100.00
40245;BME280;25963;42.694;23.600;2023-05-19T05:24:26;95463.03;;;16.96;100.00
40245;BME280;25963;42.694;23.600;2023-05-19T05:26:51;95460.41;;;16.35;100.00
40245;BME280;25963;42.694;23.600;2023-05-19T05:29:18;95440.00;;;15.85;100.00
40245;BME280;25963;42.694;23.600;2023-05-19T05:31:43;95441.28;;;16.38;100.00
40245;BME280;25963;42.694;23.600;2023-05-19T05:34:09;95453.03;;;17.08;100.00
40245;BME280;25963;42.694;23.600;2023-05-19T05:36:35;95463.06;;;17.23;100.00
40245;BME280;25963;42.694;23.600;2023-05-19T05:39:00;95458.41;;;17.35;100.00
40245;BME280;25963;42.694;23.600;2023-05-19T05:41:27;95461.38;;;16.89;100.00
40245;BME280;25963;42.694;23.600;2023-05-19T05:43:53;95475.69;;;16.61;100.00
40245;BME280;25963;42.694;23.600;2023-05-19T05:46:19;95466.94;;;16.66;100.00
40245;BME280;25963;42.694;23.600;2023-05-19T05:48:45;95463.88;;;17.23;100.00
40245;BME280;25963;42.694;23.600;2023-05-19T05:51:10;95467.84;;;17.48;100.00
40245;BME280;25963;42.694;23.600;2023-05-19T05:53:40;95470.50;;;17.48;100.00
40245;BME280;25963;42.694;23.600;2023-05-19T05:56:09;95480.97;;;17.82;100.00
40245;BME280;25963;42.694;23.600;2023-05-19T05:58:35;95472.13;;;18.18;100.00
40245;BME280;25963;42.694;23.600;2023-05-19T06:01:03;95486.63;;;18.75;100.00
40245;BME280;25963;42.694;23.600;2023-05-19T06:03:29;95486.59;;;19.43;100.00
40245;BME280;25963;42.694;23.600;2023-05-19T06:05:56;95471.66;;;20.03;100.00
40245;BME280;25963;42.694;23.600;2023-05-19T06:08:21;95477.75;;;20.45;100.00
40245;BME280;25963;42.694;23.600;2023-05-19T06:10:47;95458.72;;;20.62;100.00
40245;BME280;25963;42.694;23.600;2023-05-19T06:13:12;95471.28;;;21.26;98.17
40245;BME280;25963;42.694;23.600;2023-05-19T06:15:40;95482.25;;;21.40;96.86
40245;BME280;25963;42.694;23.600;2023-05-19T06:18:05;95475.84;;;21.36;95.96
40245;BME280;25963;42.694;23.600;2023-05-19T06:20:31;95481.00;;;21.12;95.75
40245;BME280;25963;42.694;23.600;2023-05-19T06:22:56;95488.69;;;21.34;98.29
40245;BME280;25963;42.694;23.600;2023-05-19T06:25:22;95477.81;;;21.10;96.41
40245;BME280;25963;42.694;23.600;2023-05-19T06:27:48;95471.34;;;20.56;96.53
40245;BME280;25963;42.694;23.600;2023-05-19T06:30:14;95474.75;;;20.82;100.00
40245;BME280;25963;42.694;23.600;2023-05-19T06:32:39;95474.22;;;20.70;94.94
40245;BME280;25963;42.694;23.600;2023-05-19T06:35:05;95476.38;;;20.68;95.90
40245;BME280;25963;42.694;23.600;2023-05-19T06:37:30;95465.38;;;21.29;95.01
40245;BME280;25963;42.694;23.600;2023-05-19T06:39:56;95468.59;;;21.31;94.85
40245;BME280;25963;42.694;23.600;2023-05-19T06:42:21;95478.47;;;21.46;96.15
40245;BME280;25963;42.694;23.600;2023-05-19T06:44:51;95484.31;;;21.53;99.51
40245;BME280;25963;42.694;23.600;2023-05-19T06:47:17;95470.47;;;21.36;92.82
40245;BME280;25963;42.694;23.600;2023-05-19T06:49:43;95475.88;;;21.70;95.81
40245;BME280;25963;42.694;23.600;2023-05-19T06:52:09;95487.38;;;21.31;93.80
40245;BME280;25963;42.694;23.600;2023-05-19T06:54:35;95485.19;;;21.38;99.56
40245;BME280;25963;42.694;23.600;2023-05-19T06:57:01;95477.69;;;21.40;97.72
40245;BME280;25963;42.694;23.600;2023-05-19T06:59:26;95467.09;;;21.59;95.61
40245;BME280;25963;42.694;23.600;2023-05-19T07:01:52;95484.19;;;21.69;98.07
40245;BME280;25963;42.694;23.600;2023-05-19T07:04:17;95487.25;;;21.91;97.72
40245;BME280;25963;42.694;23.600;2023-05-19T07:06:42;95467.28;;;21.68;99.76
40245;BME280;25963;42.694;23.600;2023-05-19T07:09:08;95479.66;;;21.69;98.04
40245;BME280;25963;42.694;23.600;2023-05-19T07:11:34;95471.81;;;21.78;97.82
40245;BME280;25963;42.694;23.600;2023-05-19T07:13:59;95483.25;;;21.88;96.19
40245;BME280;25963;42.694;23.600;2023-05-19T07:16:25;95467.16;;;21.83;95.23
40245;BME280;25963;42.694;23.600;2023-05-19T07:18:50;95466.94;;;20.81;95.52
40245;BME280;25963;42.694;23.600;2023-05-19T07:21:16;95463.38;;;21.55;97.08
40245;BME280;25963;42.694;23.600;2023-05-19T07:23:41;95453.66;;;21.59;100.00
40245;BME280;25963;42.694;23.600;2023-05-19T07:26:06;95470.41;;;21.80;95.32
40245;BME280;25963;42.694;23.600;2023-05-19T07:28:32;95475.06;;;22.04;98.16
40245;BME280;25963;42.694;23.600;2023-05-19T07:30:59;95447.88;;;21.81;99.27
40245;BME280;25963;42.694;23.600;2023-05-19T07:33:25;95457.38;;;21.98;95.38
40245;BME280;25963;42.694;23.600;2023-05-19T07:35:51;95479.94;;;21.62;92.81
40245;BME280;25963;42.694;23.600;2023-05-19T07:38:17;95472.00;;;21.47;98.01
40245;BME280;25963;42.694;23.600;2023-05-19T07:40:42;95472.66;;;21.68;97.67
40245;BME280;25963;42.694;23.600;2023-05-19T07:43:08;95460.59;;;22.00;100.00
40245;BME280;25963;42.694;23.600;2023-05-19T07:45:33;95475.72;;;22.25;98.84
40245;BME280;25963;42.694;23.600;2023-05-19T07:47:59;95464.69;;;21.58;95.74
40245;BME280;25963;42.694;23.600;2023-05-19T07:50:24;95466.09;;;22.19;100.00
40245;BME280;25963;42.694;23.600;2023-05-19T07:52:50;95472.50;;;21.88;99.22
40245;BME280;25963;42.694;23.600;2023-05-19T07:55:16;95465.38;;;22.08;98.24
40245;BME280;25963;42.694;23.600;2023-05-19T07:57:43;95430.72;;;22.06;95.06
40245;BME280;25963;42.694;23.600;2023-05-19T08:00:09;95458.31;;;21.83;96.91
40245;BME280;25963;42.694;23.600;2023-05-19T08:02:36;95468.44;;;22.25;95.06
40245;BME280;25963;42.694;23.600;2023-05-19T08:05:02;95467.19;;;22.47;98.54
40245;BME280;25963;42.694;23.600;2023-05-19T08:07:27;95478.50;;;22.68;94.00
40245;BME280;25963;42.694;23.600;2023-05-19T08:09:53;95483.97;;;22.82;94.93
40245;BME280;25963;42.694;23.600;2023-05-19T08:12:18;95473.63;;;22.94;94.89
40245;BME280;25963;42.694;23.600;2023-05-19T08:14:46;95480.56;;;23.00;93.43
40245;BME280;25963;42.694;23.600;2023-05-19T08:17:12;95481.19;;;22.92;92.19
40245;BME280;25963;42.694;23.600;2023-05-19T08:19:37;95486.91;;;22.85;92.46
40245;BME280;25963;42.694;23.600;2023-05-19T08:22:03;95478.16;;;22.74;98.16
40245;BME280;25963;42.694;23.600;2023-05-19T08:24:29;95481.38;;;23.00;100.00
40245;BME280;25963;42.694;23.600;2023-05-19T08:26:54;95453.19;;;22.93;95.44
40245;BME280;25963;42.694;23.600;2023-05-19T08:29:20;95467.63;;;22.78;91.13
40245;BME280;25963;42.694;23.600;2023-05-19T08:31:45;95476.88;;;22.91;98.48
40245;BME280;25963;42.694;23.600;2023-05-19T08:34:11;95465.84;;;23.16;94.90
40245;BME280;25963;42.694;23.600;2023-05-19T08:36:36;95471.84;;;23.08;95.32
40245;BME280;25963;42.694;23.600;2023-05-19T08:39:03;95465.25;;;23.38;100.00
40245;BME280;25963;42.694;23.600;2023-05-19T08:41:28;95458.56;;;23.36;90.10
40245;BME280;25963;42.694;23.600;2023-05-19T08:43:57;95449.03;;;23.62;92.13
40245;BME280;25963;42.694;23.600;2023-05-19T08:46:24;95442.19;;;23.89;87.84
40245;BME280;25963;42.694;23.600;2023-05-19T08:48:53;95446.81;;;24.02;98.33
40245;BME280;25963;42.694;23.600;2023-05-19T08:54:16;95450.78;;;23.91;91.22
40245;BME280;25963;42.694;23.600;2023-05-19T08:56:43;95475.16;;;23.43;86.16
40245;BME280;25963;42.694;23.600;2023-05-19T08:59:11;95445.53;;;23.81;92.55
40245;BME280;25963;42.694;23.600;2023-05-19T09:01:38;95455.22;;;24.14;96.88
40245;BME280;25963;42.694;23.600;2023-05-19T09:04:04;95450.41;;;24.44;91.99
40245;BME280;25963;42.694;23.600;2023-05-19T09:06:30;95442.88;;;24.27;90.99
40245;BME280;25963;42.694;23.600;2023-05-19T09:08:56;95449.22;;;24.64;93.48
40245;BME280;25963;42.694;23.600;2023-05-19T09:11:22;95448.50;;;24.58;86.31
40245;BME280;25963;42.694;23.600;2023-05-19T09:13:47;95421.56;;;24.45;84.22
40245;BME280;25963;42.694;23.600;2023-05-19T09:16:14;95439.84;;;24.75;97.80
40245;BME280;25963;42.694;23.600;2023-05-19T09:18:52;95434.53;;;24.84;85.83
40245;BME280;25963;42.694;23.600;2023-05-19T09:21:19;95418.41;;;25.06;98.73
40245;BME280;25963;42.694;23.600;2023-05-19T09:23:45;95411.94;;;24.94;85.31
40245;BME280;25963;42.694;23.600;2023-05-19T09:26:14;95411.28;;;25.24;73.51
40245;BME280;25963;42.694;23.600;2023-05-19T09:28:39;95433.19;;;25.09;68.15
40245;BME280;25963;42.694;23.600;2023-05-19T09:31:06;95407.59;;;25.57;62.80
40245;BME280;25963;42.694;23.600;2023-05-19T09:33:34;95410.47;;;25.38;59.80
40245;BME280;25963;42.694;23.600;2023-05-19T09:36:00;95426.34;;;25.39;56.56
40245;BME280;25963;42.694;23.600;2023-05-19T09:38:26;95431.53;;;24.86;55.43
40245;BME280;25963;42.694;23.600;2023-05-19T09:40:54;95428.56;;;24.59;58.73
40245;BME280;25963;42.694;23.600;2023-05-19T09:43:21;95419.34;;;24.60;61.62
40245;BME280;25963;42.694;23.600;2023-05-19T09:45:47;95404.88;;;24.56;69.77
40245;BME280;25963;42.694;23.600;2023-05-19T09:48:15;95400.44;;;24.88;55.62
40245;BME280;25963;42.694;23.600;2023-05-19T09:50:44;95413.47;;;24.72;54.41
40245;BME280;25963;42.694;23.600;2023-05-19T09:53:15;95407.56;;;24.56;60.77
40245;BME280;25963;42.694;23.600;2023-05-19T09:55:41;95406.84;;;24.92;51.98
40245;BME280;25963;42.694;23.600;2023-05-19T09:58:07;95414.56;;;24.71;56.57
40245;BME280;25963;42.694;23.600;2023-05-19T10:00:33;95414.97;;;24.04;58.59
40245;BME280;25963;42.694;23.600;2023-05-19T10:02:59;95409.16;;;24.44;59.01
40245;BME280;25963;42.694;23.600;2023-05-19T10:05:26;95401.13;;;25.08;65.71
40245;BME280;25963;42.694;23.600;2023-05-19T10:07:53;95379.81;;;25.20;53.48
40245;BME280;25963;42.694;23.600;2023-05-19T10:10:20;95415.94;;;24.82;52.28
40245;BME280;25963;42.694;23.600;2023-05-19T10:12:46;95403.88;;;25.30;52.76
40245;BME280;25963;42.694;23.600;2023-05-19T10:15:14;95379.84;;;25.65;51.99
40245;BME280;25963;42.694;23.600;2023-05-19T10:17:41;95406.34;;;25.04;46.28
40245;BME280;25963;42.694;23.600;2023-05-19T10:20:08;95379.34;;;25.04;59.68
40245;BME280;25963;42.694;23.600;2023-05-19T10:22:34;95375.97;;;24.71;51.40
40245;BME280;25963;42.694;23.600;2023-05-19T10:24:59;95393.94;;;24.34;53.84
40245;BME280;25963;42.694;23.600;2023-05-19T10:27:27;95376.53;;;23.85;59.26
40245;BME280;25963;42.694;23.600;2023-05-19T10:29:56;95378.59;;;24.48;56.25
40245;BME280;25963;42.694;23.600;2023-05-19T10:32:27;95387.00;;;25.24;58.00
40245;BME280;25963;42.694;23.600;2023-05-19T10:35:19;95390.66;;;24.78;48.48
40245;BME280;25963;42.694;23.600;2023-05-19T10:40:32;95381.75;;;25.42;55.41
40245;BME280;25963;42.694;23.600;2023-05-19T10:43:17;95388.91;;;25.24;53.22
40245;BME280;25963;42.694;23.600;2023-05-19T10:45:56;95382.50;;;23.96;48.11
40245;BME280;25963;42.694;23.600;2023-05-19T10:48:24;95382.41;;;23.35;48.88
40245;BME280;25963;42.694;23.600;2023-05-19T10:50:53;95391.88;;;23.14;49.16
40245;BME280;25963;42.694;23.600;2023-05-19T10:53:20;95399.09;;;23.18;53.40
40245;BME280;25963;42.694;23.600;2023-05-19T10:55:54;95399.72;;;23.10;52.12
40245;BME280;25963;42.694;23.600;2023-05-19T11:01:00;95389.66;;;22.54;56.16
40245;BME280;25963;42.694;23.600;2023-05-19T11:03:27;95394.41;;;22.14;56.48
40245;BME280;25963;42.694;23.600;2023-05-19T11:06:16;95394.97;;;21.82;54.25
40245;BME280;25963;42.694;23.600;2023-05-19T11:08:42;95382.59;;;22.10;56.15
40245;BME280;25963;42.694;23.600;2023-05-19T11:11:16;95381.56;;;22.06;54.47
40245;BME280;25963;42.694;23.600;2023-05-19T11:13:46;95379.53;;;21.93;51.97
40245;BME280;25963;42.694;23.600;2023-05-19T11:16:13;95383.72;;;22.04;53.19
40245;BME280;25963;42.694;23.600;2023-05-19T11:18:47;95369.59;;;22.22;53.06
40245;BME280;25963;42.694;23.600;2023-05-19T11:21:12;95388.91;;;22.72;55.66
40245;BME280;25963;42.694;23.600;2023-05-19T11:23:38;95388.19;;;22.43;50.73
40245;BME280;25963;42.694;23.600;2023-05-19T11:26:07;95409.97;;;22.12;52.25
40245;BME280;25963;42.694;23.600;2023-05-19T11:28:33;95421.44;;;21.94;52.43
40245;BME280;25963;42.694;23.600;2023-05-19T11:30:59;95415.72;;;21.32;54.94
40245;BME280;25963;42.694;23.600;2023-05-19T11:33:26;95424.69;;;20.62;58.93
40245;BME280;25963;42.694;23.600;2023-05-19T11:35:53;95451.25;;;20.38;59.56
40245;BME280;25963;42.694;23.600;2023-05-19T11:38:20;95456.38;;;20.04;62.45
40245;BME280;25963;42.694;23.600;2023-05-19T11:40:47;95461.72;;;19.53;66.91
40245;BME280;25963;42.694;23.600;2023-05-19T11:43:14;95442.94;;;19.17;68.08
40245;BME280;25963;42.694;23.600;2023-05-19T11:45:40;95461.44;;;19.39;69.19
40245;BME280;25963;42.694;23.600;2023-05-19T11:48:10;95470.50;;;19.23;73.23
40245;BME280;25963;42.694;23.600;2023-05-19T11:50:36;95433.06;;;19.18;74.10
40245;BME280;25963;42.694;23.600;2023-05-19T11:53:02;95438.41;;;19.23;72.84
40245;BME280;25963;42.694;23.600;2023-05-19T11:55:28;95463.78;;;19.00;76.35
40245;BME280;25963;42.694;23.600;2023-05-19T11:57:57;95462.97;;;19.04;78.06
40245;BME280;25963;42.694;23.600;2023-05-19T12:00:27;95444.28;;;19.20;75.03
40245;BME280;25963;42.694;23.600;2023-05-19T12:02:52;95459.06;;;19.48;74.56
40245;BME280;25963;42.694;23.600;2023-05-19T12:05:21;95459.88;;;19.89;74.77
40245;BME280;25963;42.694;23.600;2023-05-19T12:07:48;95458.00;;;20.05;74.76
40245;BME280;25963;42.694;23.600;2023-05-19T12:10:16;95461.47;;;20.05;69.78
40245;BME280;25963;42.694;23.600;2023-05-19T12:12:44;95451.53;;;20.32;69.59
40245;BME280;25963;42.694;23.600;2023-05-19T12:15:10;95440.44;;;20.79;75.40
40245;BME280;25963;42.694;23.600;2023-05-19T12:17:35;95430.13;;;21.02;67.64
40245;BME280;25963;42.694;23.600;2023-05-19T12:20:01;95426.66;;;21.01;67.80
40245;BME280;25963;42.694;23.600;2023-05-19T12:22:29;95420.97;;;21.52;69.38
40245;BME280;25963;42.694;23.600;2023-05-19T12:24:54;95416.97;;;21.50;67.20
40245;BME280;25963;42.694;23.600;2023-05-19T12:27:23;95430.34;;;21.55;63.36
40245;BME280;25963;42.694;23.600;2023-05-19T12:29:54;95416.34;;;21.63;64.07
40245;BME280;25963;42.694;23.600;2023-05-19T12:32:27;95416.59;;;21.67;65.73
40245;BME280;25963;42.694;23.600;2023-05-19T12:34:56;95418.41;;;21.37;62.15
40245;BME280;25963;42.694;23.600;2023-05-19T12:37:25;95429.38;;;21.40;68.52
40245;BME280;25963;42.694;23.600;2023-05-19T12:39:50;95402.53;;;21.40;66.46
40245;BME280;25963;42.694;23.600;2023-05-19T12:42:16;95392.47;;;21.17;68.61
40245;BME280;25963;42.694;23.600;2023-05-19T12:44:49;95414.00;;;21.07;63.70
40245;BME280;25963;42.694;23.600;2023-05-19T12:47:17;95404.28;;;20.66;62.25
40245;BME280;25963;42.694;23.600;2023-05-19T12:50:06;95409.56;;;21.36;66.07
40245;BME280;25963;42.694;23.600;2023-05-19T12:52:47;95386.75;;;21.68;66.41
40245;BME280;25963;42.694;23.600;2023-05-19T12:55:15;95394.25;;;22.00;64.30
40245;BME280;25963;42.694;23.600;2023-05-19T12:57:47;95395.38;;;21.94;64.33
40245;BME280;25963;42.694;23.600;2023-05-19T13:00:13;95384.00;;;22.31;66.58
40245;BME280;25963;42.694;23.600;2023-05-19T13:03:01;95405.03;;;22.72;63.68
40245;BME280;25963;42.694;23.600;2023-05-19T13:05:30;95399.97;;;22.90;64.63
40245;BME280;25963;42.694;23.600;2023-05-19T13:07:58;95391.66;;;23.10;62.20